Time;durP1;ratioP1;P1;durP2;ratioP2;P2;SDS_P1;SDS_P2;PMS_P1;PMS_P2;Temp;Humidity;BMP_temperature;BMP_pressure;BME280_temperature;BME280_humidity;BME280_pressure;Samples;Min_cycle;Max_cycle;Signal;HPM_P1;HPM_P2
2022/08/04 00:00:02;;;;;;;2.40;1.20;;;;;;;-145.69;67.82;70505.06;5033689;28;20621;-78
2022/08/04 00:02:41;;;;;;;2.10;1.20;;;;;;;-145.69;67.79;70499.09;5030375;28;20211;-78
2022/08/04 00:05:16;;;;;;;1.50;1.30;;;;;;;-145.69;67.49;70511.03;5034300;28;20258;-78
2022/08/04 00:07:48;;;;;;;2.58;1.40;;;;;;;-145.69;66.66;70515.00;5033728;28;20199;-79
2022/08/04 00:10:19;;;;;;;2.78;1.10;;;;;;;-145.69;67.48;70515.00;5034485;28;20196;-78
2022/08/04 00:12:49;;;;;;;2.75;1.15;;;;;;;-145.69;69.04;70534.91;5033427;28;20199;-78
2022/08/04 00:15:17;;;;;;;1.95;1.50;;;;;;;-145.69;69.23;70562.75;5033295;28;20724;-78
2022/08/04 00:17:49;;;;;;;1.35;1.00;;;;;;;-145.69;71.57;70570.72;5033447;28;20566;-78
2022/08/04 00:20:18;;;;;;;4.75;1.20;;;;;;;-145.69;71.42;70586.63;5033432;28;20211;-78
2022/08/04 00:22:46;;;;;;;5.20;1.23;;;;;;;-145.69;73.38;70600.56;5047352;28;20195;-78
2022/08/04 00:25:13;;;;;;;5.05;1.33;;;;;;;-145.69;73.50;70606.53;5053089;28;20199;-78
2022/08/04 00:27:40;;;;;;;1.45;1.35;;;;;;;-145.69;73.62;70604.53;5052905;28;20200;-79
2022/08/04 00:30:08;;;;;;;3.17;1.65;;;;;;;-145.69;73.64;70610.50;5051445;28;20192;-78
2022/08/04 00:32:35;;;;;;;3.60;1.30;;;;;;;-145.69;72.46;70612.50;5052964;28;20681;-79
2022/08/04 00:35:03;;;;;;;3.05;1.20;;;;;;;-145.69;72.31;70600.56;5053082;28;20254;-80
2022/08/04 00:37:29;;;;;;;1.60;1.30;;;;;;;-145.69;72.47;70608.53;5051829;28;20428;-78
2022/08/04 00:39:56;;;;;;;2.42;1.52;;;;;;;-145.69;71.04;70606.53;5044485;28;20254;-79
2022/08/04 00:42:37;;;;;;;3.88;1.20;;;;;;;-145.69;71.61;70598.56;5033013;28;20208;-79
2022/08/04 00:45:27;;;;;;;3.42;1.52;;;;;;;-145.69;70.77;70586.63;5033197;28;20199;-79
2022/08/04 00:48:04;;;;;;;2.63;1.30;;;;;;;-145.69;68.44;70576.69;5032779;28;20282;-79
2022/08/04 00:50:43;;;;;;;5.95;1.23;;;;;;;-145.69;67.55;70566.75;5032842;28;20319;-79
2022/08/04 00:53:17;;;;;;;1.65;1.27;;;;;;;-145.69;65.16;70538.88;5033015;28;20207;-79
2022/08/04 00:56:04;;;;;;;5.40;1.30;;;;;;;-145.69;65.29;70524.97;5032572;28;20203;-79
2022/08/04 00:58:50;;;;;;;3.42;1.27;;;;;;;-145.69;66.68;70536.91;5032854;28;20605;-79
2022/08/04 01:01:29;;;;;;;4.40;1.65;;;;;;;-145.69;67.76;70538.88;5033013;28;20554;-79
2022/08/04 01:04:03;;;;;;;4.53;1.20;;;;;;;-145.69;68.07;70546.84;5039651;28;20704;-80
2022/08/04 01:06:36;;;;;;;2.30;1.40;;;;;;;-145.69;63.79;70517.00;5052705;28;20610;-79
2022/08/04 01:09:15;;;;;;;6.25;1.55;;;;;;;-145.69;64.79;70515.00;5052632;28;20253;-78
2022/08/04 01:11:52;;;;;;;1.55;1.10;;;;;;;-145.69;67.68;70530.94;5052690;28;20268;-78
2022/08/04 01:14:35;;;;;;;1.45;1.20;;;;;;;-145.69;69.96;70554.81;5052729;28;20249;-77
2022/08/04 01:17:15;;;;;;;4.00;1.20;;;;;;;-145.69;70.90;70576.69;5035986;28;20200;-79
2022/08/04 01:19:54;;;;;;;5.70;1.50;;;;;;;-145.69;71.05;70588.63;5032571;28;20204;-77
2022/08/04 01:23:04;;;;;;;19.77;2.10;;;;;;;-145.69;72.69;70602.56;5032799;28;20298;-77
2022/08/04 01:25:50;;;;;;;2.20;1.10;;;;;;;-145.69;72.02;70604.53;5032622;28;20605;-78
2022/08/04 01:28:29;;;;;;;2.25;1.30;;;;;;;-145.69;72.83;70608.53;5032763;28;20197;-77
2022/08/04 01:31:06;;;;;;;4.57;1.30;;;;;;;-145.69;70.63;70590.63;5033417;28;20251;-78
2022/08/04 01:33:37;;;;;;;2.83;1.10;;;;;;;-145.69;66.29;70554.81;5032620;28;20200;-77
2022/08/04 01:36:05;;;;;;;1.35;1.20;;;;;;;-145.69;62.26;70507.06;5031510;28;20258;-77
2022/08/04 01:38:36;;;;;;;4.13;1.33;;;;;;;-145.69;62.11;70487.16;5029517;28;20208;-78
2022/08/04 01:41:04;;;;;;;2.15;1.33;;;;;;;-145.69;64.69;70495.13;5039725;28;20286;-78
2022/08/04 01:43:33;;;;;;;2.20;0.90;;;;;;;-145.69;63.58;70507.06;5051552;28;20226;-77
2022/08/04 01:46:02;;;;;;;5.28;1.10;;;;;;;-145.69;64.05;70515.00;5049636;28;20246;-78
2022/08/04 01:48:30;;;;;;;2.97;1.17;;;;;;;-145.69;62.18;70495.13;5051139;28;20837;-77
2022/08/04 01:50:58;;;;;;;2.92;1.52;;;;;;;-145.69;61.79;70487.16;5051992;28;20770;-81
2022/08/04 01:53:30;;;;;;;1.42;1.20;;;;;;;-145.69;60.91;70471.25;5041776;28;20196;-78
2022/08/04 01:55:57;;;;;;;2.00;0.90;;;;;;;-145.69;62.34;70477.22;5034763;28;20246;-78
2022/08/04 01:58:25;;;;;;;1.20;1.10;;;;;;;-145.69;63.13;70491.13;5035981;28;20204;-77
2022/08/04 02:00:57;;;;;;;1.85;1.05;;;;;;;-145.69;63.19;70503.06;5035968;28;20277;-77
2022/08/04 02:03:25;;;;;;;1.83;1.08;;;;;;;-145.69;62.91;70491.13;5035715;28;20292;-77
2022/08/04 02:05:59;;;;;;;1.88;1.23;;;;;;;-145.69;63.07;70501.09;5055905;28;20261;-78
2022/08/04 02:08:45;;;;;;;2.20;1.20;;;;;;;-145.69;62.84;70499.09;5055743;28;20206;-77
2022/08/04 02:11:16;;;;;;;3.90;1.33;;;;;;;-145.69;66.31;70526.94;5053452;28;20268;-77
2022/08/04 02:13:53;;;;;;;1.13;1.02;;;;;;;-145.69;64.07;70519.00;5049898;28;20612;-77
2022/08/04 02:16:28;;;;;;;4.13;1.48;;;;;;;-145.69;62.99;70503.06;5051391;28;20203;-78
2022/08/04 02:19:02;;;;;;;1.67;1.23;;;;;;;-145.69;62.44;70481.19;5055629;28;20202;-78
2022/08/04 02:21:31;;;;;;;3.90;1.33;;;;;;;-145.69;61.66;70461.31;5055550;28;20253;-78
2022/08/04 02:24:05;;;;;;;4.40;1.10;;;;;;;-145.69;60.70;70455.34;5054326;28;20490;-80
2022/08/04 02:26:34;;;;;;;1.33;1.10;;;;;;;-145.69;61.71;70453.34;5045564;28;20194;-78
2022/08/04 02:29:09;;;;;;;1.65;1.20;;;;;;;-145.69;60.04;70443.41;5036263;28;20208;-78
2022/08/04 02:31:43;;;;;;;4.10;1.25;;;;;;;-145.69;60.14;70441.41;5035416;28;20628;-78
2022/08/04 02:34:17;;;;;;;2.28;1.00;;;;;;;-145.69;62.76;70463.28;5035355;28;20204;-78
2022/08/04 02:36:43;;;;;;;1.65;1.23;;;;;;;-145.69;62.99;70473.22;5035210;28;20204;-78
2022/08/04 02:39:12;;;;;;;2.45;1.02;;;;;;;-145.69;63.10;70483.19;5034901;28;20677;-79
2022/08/04 02:41:40;;;;;;;2.03;1.20;;;;;;;-145.69;63.35;70487.16;5035259;28;20204;-78
2022/08/04 02:44:09;;;;;;;2.45;1.27;;;;;;;-145.69;64.39;70495.13;5035088;28;20204;-78
2022/08/04 02:46:37;;;;;;;3.08;1.30;;;;;;;-145.69;65.97;70526.94;5034920;28;20228;-78
2022/08/04 02:49:05;;;;;;;2.33;1.65;;;;;;;-145.69;68.48;70548.84;5034858;28;20716;-78
2022/08/04 02:51:34;;;;;;;1.40;1.20;;;;;;;-145.69;68.05;70550.81;5034817;28;20215;-77
2022/08/04 02:54:04;;;;;;;2.92;1.40;;;;;;;-145.69;68.13;70556.78;5035086;28;20204;-78
2022/08/04 02:56:33;;;;;;;2.88;1.30;;;;;;;-145.69;67.63;70554.81;5034902;28;20200;-78
2022/08/04 02:59:01;;;;;;;1.70;1.13;;;;;;;-145.69;68.19;70550.81;5034861;28;20207;-78
2022/08/04 03:01:27;;;;;;;5.03;1.23;;;;;;;-145.69;67.30;70542.88;5034691;28;20204;-78
2022/08/04 03:04:13;;;;;;;1.20;1.10;;;;;;;-145.69;67.57;70530.94;5039961;28;20196;-78
2022/08/04 03:07:19;;;;;;;1.67;1.08;;;;;;;-145.69;67.17;70538.88;5054428;28;20233;-79
2022/08/04 03:10:12;;;;;;;1.48;1.10;;;;;;;-145.69;67.28;70538.88;5052027;28;20202;-78
2022/08/04 03:13:05;;;;;;;1.00;0.90;;;;;;;-145.69;67.65;70540.88;5053260;28;20620;-77
2022/08/04 03:15:57;;;;;;;1.52;1.20;;;;;;;-145.69;67.38;70554.81;5054089;28;20207;-78
2022/08/04 03:18:42;;;;;;;1.75;1.10;;;;;;;-145.69;67.53;70544.84;5053871;28;20257;-78
2022/08/04 03:21:43;;;;;;;4.28;1.45;;;;;;;-145.69;66.43;70528.94;5040688;28;20787;-78
2022/08/04 03:24:44;;;;;;;2.28;1.30;;;;;;;-145.69;70.13;70562.75;5034354;28;20204;-78
2022/08/04 03:27:14;;;;;;;4.18;1.27;;;;;;;-145.69;70.27;70574.69;5034177;28;20685;-78
2022/08/04 03:30:11;;;;;;;2.53;1.10;;;;;;;-145.69;69.72;70576.69;5034167;28;20536;-78
2022/08/04 03:33:10;;;;;;;1.13;1.00;;;;;;;-145.69;68.86;70568.72;5037696;28;20216;-78
2022/08/04 03:35:57;;;;;;;1.65;1.20;;;;;;;-145.69;69.61;70574.69;4997743;28;20488;-76
2022/08/04 03:39:02;;;;;;;2.97;1.38;;;;;;;-145.69;72.96;70616.47;5033294;28;20246;-77
2022/08/04 03:41:45;;;;;;;3.33;1.17;;;;;;;-145.69;74.78;70644.31;5034114;28;20540;-77
2022/08/04 03:44:36;;;;;;;1.92;1.30;;;;;;;-145.69;76.83;70668.19;5033658;28;20215;-77
2022/08/04 03:47:32;;;;;;;2.78;1.20;;;;;;;-145.69;73.14;70630.41;5032892;28;20236;-78
2022/08/04 03:50:28;;;;;;;1.73;1.27;;;;;;;-145.69;71.26;70592.59;5039683;28;20196;-77
2022/08/04 03:53:08;;;;;;;2.13;1.23;;;;;;;-145.69;69.56;70578.69;5053545;28;20711;-78
2022/08/04 03:55:46;;;;;;;1.50;1.40;;;;;;;-145.69;68.85;70554.81;5054011;28;20210;-77
2022/08/04 03:58:39;;;;;;;1.67;1.20;;;;;;;-145.69;69.49;70554.81;5052535;28;20245;-77
2022/08/04 04:01:19;;;;;;;2.42;1.60;;;;;;;-145.69;67.95;70532.91;5044637;28;20196;-77
2022/08/04 04:04:15;;;;;;;1.55;1.20;;;;;;;-145.69;67.40;70526.94;5033627;28;20204;-78
2022/08/04 04:06:59;;;;;;;2.15;1.30;;;;;;;-145.69;68.79;70534.91;5033712;28;20208;-77
2022/08/04 04:09:54;;;;;;;1.77;1.30;;;;;;;-145.69;69.65;70550.81;5033595;28;20203;-77
2022/08/04 04:12:39;;;;;;;1.75;1.15;;;;;;;-145.69;70.11;70550.81;5033638;28;20235;-78
2022/08/04 04:15:22;;;;;;;3.70;1.20;;;;;;;-145.69;71.02;70560.78;5033361;28;20605;-77
2022/08/04 04:18:06;;;;;;;2.88;1.50;;;;;;;-145.69;69.33;70544.84;5033129;28;20204;-77
2022/08/04 04:21:06;;;;;;;1.27;1.00;;;;;;;-145.69;67.30;70507.06;5033591;28;20270;-77
2022/08/04 04:23:48;;;;;;;6.88;1.50;;;;;;;-145.69;66.37;70497.09;5033559;28;20633;-77
2022/08/04 04:26:41;;;;;;;1.83;1.33;;;;;;;-145.69;66.86;70499.09;5037034;28;20206;-76
2022/08/04 04:29:35;;;;;;;3.58;1.30;;;;;;;-145.69;66.52;70497.09;5049681;28;20206;-77
2022/08/04 04:32:14;;;;;;;1.65;1.15;;;;;;;-145.69;67.66;70499.09;5053099;28;20230;-77
2022/08/04 04:34:49;;;;;;;3.08;1.30;;;;;;;-145.69;68.84;70519.00;5053224;28;20306;-77
2022/08/04 04:37:25;;;;;;;5.45;1.85;;;;;;;-145.69;68.26;70515.00;5053041;28;20203;-78
2022/08/04 04:40:03;;;;;;;3.72;1.35;;;;;;;-145.69;67.57;70501.09;5034705;28;20207;-77
2022/08/04 04:42:45;;;;;;;1.52;1.20;;;;;;;-145.69;66.70;70507.06;5033237;28;20307;-77
2022/08/04 04:45:22;;;;;;;4.32;1.33;;;;;;;-145.69;68.06;70505.06;5032738;28;20441;-77
2022/08/04 04:47:56;;;;;;;2.13;1.30;;;;;;;-145.69;68.21;70511.03;5032698;28;20255;-76
2022/08/04 04:50:32;;;;;;;1.88;1.30;;;;;;;-145.69;68.19;70509.03;5037824;28;20244;-77
2022/08/04 04:53:09;;;;;;;2.97;1.45;;;;;;;-145.69;68.77;70515.00;5052847;28;20230;-77
2022/08/04 04:55:42;;;;;;;2.03;1.40;;;;;;;-145.69;68.86;70515.00;5052779;28;20562;-77
2022/08/04 04:58:13;;;;;;;1.98;1.50;;;;;;;-145.69;69.42;70511.03;5052673;28;20206;-77
2022/08/04 05:00:52;;;;;;;1.80;1.30;;;;;;;-145.69;69.64;70507.06;5053026;28;20200;-77
2022/08/04 05:03:39;;;;;;;1.95;1.42;;;;;;;-145.69;70.83;70520.97;5040944;28;20204;-77
2022/08/04 05:06:17;;;;;;;2.38;1.60;;;;;;;-145.69;70.75;70513.03;5032882;28;20199;-77
2022/08/04 05:09:07;;;;;;;1.83;1.33;;;;;;;-145.69;71.42;70515.00;5031625;28;20350;-77
2022/08/04 05:11:51;;;;;;;1.98;1.20;;;;;;;-145.69;71.42;70507.06;5031426;28;20207;-77
2022/08/04 05:14:23;;;;;;;3.90;1.40;;;;;;;-145.69;71.57;70499.09;5035773;28;20195;-76
2022/08/04 05:16:57;;;;;;;1.70;1.08;;;;;;;-145.69;70.70;70499.09;5052765;28;20257;-77
2022/08/04 05:19:33;;;;;;;3.72;1.50;;;;;;;-145.69;70.02;70487.16;5051850;28;20265;-78
2022/08/04 05:22:04;;;;;;;2.20;1.35;;;;;;;-145.69;70.58;70471.25;5050761;28;20780;-77
2022/08/04 05:24:35;;;;;;;1.30;1.20;;;;;;;-145.69;69.72;70463.28;5052434;28;20203;-77
2022/08/04 05:27:06;;;;;;;4.18;1.60;;;;;;;-145.69;69.85;70455.34;5051224;28;20195;-77
2022/08/04 05:29:36;;;;;;;2.47;1.48;;;;;;;-145.69;70.90;70439.41;5052894;28;20199;-77
2022/08/04 05:32:07;;;;;;;1.40;1.30;;;;;;;-145.69;69.76;70437.44;5056134;28;20249;-77
2022/08/04 05:34:40;;;;;;;4.10;1.30;;;;;;;-145.69;69.17;70433.44;5056481;28;20208;-77
2022/08/04 05:37:10;;;;;;;3.67;1.60;;;;;;;-145.69;69.98;70423.50;5056193;28;20249;-77
2022/08/04 05:39:45;;;;;;;1.50;1.20;;;;;;;-145.69;68.92;70415.53;5038500;28;20200;-77
2022/08/04 05:42:12;;;;;;;5.25;1.75;;;;;;;-145.69;70.81;70403.59;5035341;28;20200;-77
2022/08/04 05:44:39;;;;;;;3.22;1.63;;;;;;;-145.69;69.60;70393.66;5035484;28;20211;-77
2022/08/04 05:47:06;;;;;;;3.58;1.58;;;;;;;-145.69;69.68;70383.72;5035158;28;20232;-78
2022/08/04 05:49:36;;;;;;;3.15;1.48;;;;;;;-145.69;68.45;70371.78;5035848;28;20654;-78
2022/08/04 05:52:04;;;;;;;3.55;1.38;;;;;;;-145.69;69.21;70361.84;5055009;28;20218;-78
2022/08/04 05:54:33;;;;;;;2.88;1.52;;;;;;;-145.69;68.42;70347.91;5055690;28;20257;-78
2022/08/04 05:57:00;;;;;;;2.33;1.40;;;;;;;-145.69;68.22;70339.94;5055498;28;20448;-78
2022/08/04 05:59:27;;;;;;;1.42;1.30;;;;;;;-145.69;68.36;70322.03;5055795;28;20229;-78
2022/08/04 06:01:57;;;;;;;2.10;1.50;;;;;;;-145.69;67.71;70304.13;5056021;28;20230;-79
2022/08/04 06:04:27;;;;;;;3.40;1.40;;;;;;;-145.69;66.68;70280.28;5034268;28;20208;-78
2022/08/04 06:06:55;;;;;;;1.73;1.33;;;;;;;-145.69;66.68;70268.34;5035504;28;20207;-78
2022/08/04 06:09:22;;;;;;;1.58;1.30;;;;;;;-145.69;66.12;70252.41;5034587;28;20200;-78
2022/08/04 06:11:51;;;;;;;1.30;1.10;;;;;;;-145.69;66.41;70240.47;5036187;28;20192;-78
2022/08/04 06:14:19;;;;;;;2.47;1.40;;;;;;;-145.69;65.55;70216.63;5035740;28;20207;-78
2022/08/04 06:16:46;;;;;;;3.25;1.40;;;;;;;-145.69;64.78;70192.75;5035609;28;20238;-78
2022/08/04 06:19:14;;;;;;;1.75;1.58;;;;;;;-145.69;65.38;70178.81;5036643;28;20680;-78
2022/08/04 06:21:44;;;;;;;1.75;1.20;;;;;;;-145.69;64.73;70164.88;5035494;28;20196;-78
2022/08/04 06:24:17;;;;;;;2.20;1.77;;;;;;;-145.69;65.62;70152.97;5035658;28;20204;-78
2022/08/04 06:26:45;;;;;;;2.80;1.48;;;;;;;-145.69;65.82;70119.13;5035545;28;20199;-78
2022/08/04 06:29:19;;;;;;;1.25;1.15;;;;;;;-145.69;65.21;70071.41;5035513;28;20211;-79
2022/08/04 06:31:57;;;;;;;1.38;1.27;;;;;;;-145.69;63.36;70041.56;5055262;28;20203;-78
2022/08/04 06:34:26;;;;;;;2.97;1.30;;;;;;;-145.69;63.89;70011.72;5055440;28;20199;-79
2022/08/04 06:36:54;;;;;;;2.83;1.10;;;;;;;-145.69;61.37;69981.88;5055352;28;20203;-78
2022/08/04 06:39:23;;;;;;;1.50;0.95;;;;;;;-145.69;62.04;69950.06;5055171;28;20215;-78
2022/08/04 06:41:51;;;;;;;1.92;1.50;;;;;;;-145.69;59.58;69926.19;5049723;28;20698;-79
2022/08/04 06:44:20;;;;;;;1.75;1.30;;;;;;;-145.69;60.16;69910.28;5035151;28;20208;-79
2022/08/04 06:46:48;;;;;;;3.75;1.50;;;;;;;-145.69;59.15;69884.41;5034666;28;20649;-78
2022/08/04 06:49:17;;;;;;;1.50;1.10;;;;;;;-145.69;60.11;69886.41;5036280;28;20246;-78
2022/08/04 06:51:45;;;;;;;3.45;1.42;;;;;;;-145.69;57.86;69866.50;5033926;28;20200;-79
2022/08/04 06:54:11;;;;;;;1.27;1.15;;;;;;;-145.69;56.96;69862.53;5034688;28;20257;-78
2022/08/04 06:56:40;;;;;;;1.85;1.30;;;;;;;-145.69;56.05;69836.69;5034877;28;20207;-78
2022/08/04 06:59:07;;;;;;;3.30;1.25;;;;;;;-145.69;55.84;69826.72;5034564;28;20207;-80
2022/08/04 07:01:37;;;;;;;1.83;1.40;;;;;;;-145.69;55.04;69802.88;5053681;28;20200;-78
2022/08/04 07:04:03;;;;;;;1.40;1.30;;;;;;;-145.69;53.82;69782.97;5054643;28;20206;-79
2022/08/04 07:06:30;;;;;;;3.00;1.40;;;;;;;-145.69;49.63;69759.09;5054532;28;20211;-79
2022/08/04 07:08:57;;;;;;;3.20;1.20;;;;;;;-145.69;51.25;69737.22;5054637;28;20199;-79
2022/08/04 07:11:24;;;;;;;1.40;1.30;;;;;;;-145.69;51.68;69721.31;5053230;28;20230;-79
2022/08/04 07:13:52;;;;;;;2.65;1.38;;;;;;;-145.69;51.49;69699.44;5034393;28;20657;-78
2022/08/04 07:16:21;;;;;;;2.47;1.20;;;;;;;-145.69;46.89;69683.53;5034735;28;20207;-79
2022/08/04 07:18:48;;;;;;;9.68;2.40;;;;;;;-145.69;44.22;69657.66;5034584;28;20250;-80
2022/08/04 07:21:22;;;;;;;21.13;4.28;;;;;;;-145.69;44.70;69643.75;5034516;28;20207;-80
2022/08/04 07:23:48;;;;;;;3.20;1.45;;;;;;;-145.69;43.05;69635.78;5035805;28;20610;-79
2022/08/04 07:26:17;;;;;;;5.90;1.60;;;;;;;-145.69;42.64;69613.91;5054151;28;20713;-77
2022/08/04 07:28:44;;;;;;;3.92;1.48;;;;;;;-145.69;42.41;69598.00;5053704;28;20206;-78
2022/08/04 07:31:15;;;;;;;10.48;2.50;;;;;;;-145.69;42.42;69586.06;5053238;28;20717;-78
2022/08/04 07:33:43;;;;;;;3.88;1.60;;;;;;;-145.69;40.30;69582.09;5053273;28;20223;-78
2022/08/04 07:36:10;;;;;;;1.90;1.50;;;;;;;-145.69;42.62;69552.25;5050333;28;20207;-78
2022/08/04 07:38:37;;;;;;;2.17;1.67;;;;;;;-145.69;41.83;69536.34;5034007;28;20200;-78
2022/08/04 07:41:05;;;;;;;2.00;1.40;;;;;;;-145.69;40.88;69542.31;5033091;28;20200;-78
2022/08/04 07:43:32;;;;;;;2.30;1.58;;;;;;;-145.69;40.22;69536.34;5033777;28;20207;-78
2022/08/04 07:45:58;;;;;;;2.58;1.60;;;;;;;-145.69;39.89;69512.47;5032643;28;20940;-78
2022/08/04 07:48:26;;;;;;;2.30;1.63;;;;;;;-145.69;40.08;69512.47;5039566;28;20265;-78
2022/08/04 07:50:53;;;;;;;2.22;1.63;;;;;;;-145.69;38.83;69504.50;5052073;28;20649;-77
2022/08/04 07:53:22;;;;;;;5.43;1.60;;;;;;;-145.69;38.92;69484.63;5052747;28;20223;-78
2022/08/04 07:55:49;;;;;;;2.92;1.60;;;;;;;-145.69;39.44;69474.69;5052786;28;20654;-78
2022/08/04 07:58:15;;;;;;;2.03;1.38;;;;;;;-145.69;39.12;69466.72;5053050;28;20246;-78
2022/08/04 08:00:45;;;;;;;3.78;1.40;;;;;;;-145.69;40.39;69442.84;5051068;28;20253;-78
2022/08/04 08:03:12;;;;;;;2.05;1.60;;;;;;;-145.69;37.50;69436.91;5052887;28;20203;-78
2022/08/04 08:05:40;;;;;;;4.13;1.45;;;;;;;-145.69;36.60;69430.94;5051365;28;20207;-78
2022/08/04 08:08:06;;;;;;;2.47;1.40;;;;;;;-145.69;37.53;69413.03;5049343;28;20196;-78
2022/08/04 08:10:33;;;;;;;3.15;1.60;;;;;;;-145.69;36.60;69393.13;5052659;28;20436;-78
2022/08/04 08:13:00;;;;;;;2.92;1.58;;;;;;;-145.69;36.30;69387.16;5052754;28;20281;-78
2022/08/04 08:15:26;;;;;;;1.60;1.35;;;;;;;-145.69;36.86;69383.19;5045941;28;20677;-78
2022/08/04 08:17:53;;;;;;;3.35;1.60;;;;;;;-145.69;37.16;69365.28;5036405;28;20223;-78
2022/08/04 08:20:20;;;;;;;2.58;1.80;;;;;;;-145.69;37.75;69371.25;5042354;28;20309;-78
2022/08/04 08:22:48;;;;;;;1.70;1.45;;;;;;;-145.69;37.32;69377.22;5053419;28;20199;-78
2022/08/04 08:25:14;;;;;;;3.92;1.70;;;;;;;-145.69;40.14;69349.38;5053119;28;20196;-78
2022/08/04 08:27:41;;;;;;;2.83;1.77;;;;;;;-145.69;37.52;69327.50;5053251;28;20257;-78
2022/08/04 08:30:09;;;;;;;1.92;1.50;;;;;;;-145.69;35.90;69325.53;5035639;28;20196;-78
2022/08/04 08:32:35;;;;;;;3.10;1.73;;;;;;;-145.69;35.62;69327.50;5032999;28;20200;-77
2022/08/04 08:35:02;;;;;;;3.03;1.45;;;;;;;-145.69;36.37;69325.53;5032907;28;20658;-78
2022/08/04 08:37:35;;;;;;;4.90;1.45;;;;;;;-145.69;36.00;69313.59;5032381;28;20582;-78
2022/08/04 08:40:19;;;;;;;1.73;1.52;;;;;;;-145.69;35.61;69341.44;5033171;28;20327;-77
2022/08/04 08:42:59;;;;;;;3.85;1.77;;;;;;;-145.69;34.80;69343.41;5052828;28;20199;-78
2022/08/04 08:46:10;;;;;;;2.35;1.55;;;;;;;-145.69;35.58;69365.28;5052736;28;20207;-78
2022/08/04 08:49:01;;;;;;;2.90;1.50;;;;;;;-145.69;35.46;69367.28;5006633;28;20228;-78
2022/08/04 08:51:49;;;;;;;6.82;1.83;;;;;;;-145.69;36.04;69381.19;5032747;28;20261;-77
2022/08/04 08:54:37;;;;;;;2.33;1.80;;;;;;;-145.69;35.59;69357.34;5013463;28;20275;-77
2022/08/04 08:57:19;;;;;;;5.22;1.77;;;;;;;-145.69;35.57;69349.38;5012600;28;20955;-77
2022/08/04 09:00:01;;;;;;;2.10;1.90;;;;;;;-145.69;36.01;69329.50;5011192;28;20258;-78
2022/08/04 09:02:49;;;;;;;3.90;1.50;;;;;;;-145.69;36.17;69329.50;5013644;28;20204;-77
2022/08/04 09:05:38;;;;;;;5.30;1.50;;;;;;;-145.69;37.20;69323.53;4976883;28;20270;-77
2022/08/04 09:08:22;;;;;;;1.77;1.30;;;;;;;-145.69;36.29;69309.59;5017077;28;20212;-77
2022/08/04 09:10:53;;;;;;;2.80;1.52;;;;;;;-145.69;34.76;69291.72;5023546;28;20203;-77
2022/08/04 09:13:26;;;;;;;3.22;1.73;;;;;;;-145.69;35.45;69269.81;5034819;28;20759;-77
2022/08/04 09:15:59;;;;;;;2.53;1.83;;;;;;;-145.69;34.85;69281.75;5035239;28;20200;-77
2022/08/04 09:18:32;;;;;;;3.00;1.60;;;;;;;-145.69;34.93;69267.84;5035201;28;20291;-77
2022/08/04 09:21:04;;;;;;;4.10;1.75;;;;;;;-145.69;35.40;69265.84;5035711;28;20203;-76
2022/08/04 09:23:39;;;;;;;2.17;1.70;;;;;;;-145.69;36.81;69263.88;5021314;28;20200;-77
2022/08/04 09:26:11;;;;;;;4.22;1.95;;;;;;;-145.69;34.83;69269.81;5016657;28;20246;-77
2022/08/04 09:28:47;;;;;;;5.65;2.25;;;;;;;-145.69;34.42;69351.38;5016638;28;20608;-77
2022/08/04 09:31:17;;;;;;;3.28;1.80;;;;;;;-145.69;34.95;69359.31;5016645;28;20204;-77
2022/08/04 09:33:50;;;;;;;2.50;1.90;;;;;;;-145.69;36.05;69341.44;5016714;28;20220;-77
2022/08/04 09:36:28;;;;;;;3.10;1.58;;;;;;;-145.69;37.05;69337.44;5032193;28;20200;-77
2022/08/04 09:39:08;;;;;;;2.78;1.50;;;;;;;-145.69;35.00;69349.38;5016567;28;20209;-77
2022/08/04 09:41:41;;;;;;;2.55;1.90;;;;;;;-145.69;34.87;69323.53;5016159;28;20604;-78
2022/08/04 09:44:19;;;;;;;6.68;1.80;;;;;;;-145.69;37.39;69271.81;5016440;28;20288;-77
2022/08/04 09:46:51;;;;;;;3.60;2.00;;;;;;;-145.69;35.99;69265.84;5026079;28;20288;-78
2022/08/04 09:49:22;;;;;;;6.07;1.58;;;;;;;-145.69;35.96;69265.84;5055944;28;20202;-77
2022/08/04 09:51:58;;;;;;;3.35;1.52;;;;;;;-145.69;36.21;69242.00;5055847;28;20665;-77
2022/08/04 09:54:33;;;;;;;2.15;1.58;;;;;;;-145.69;35.84;69214.16;5054763;28;20689;-78
2022/08/04 09:57:06;;;;;;;4.68;1.95;;;;;;;-145.69;35.03;69240.00;5035927;28;20658;-77
2022/08/04 09:59:42;;;;;;;2.95;1.60;;;;;;;-145.69;34.72;69206.19;5035221;28;20472;-77
2022/08/04 10:02:13;;;;;;;2.10;1.60;;;;;;;-145.69;35.13;69202.22;5035820;28;20678;-78
2022/08/04 10:04:43;;;;;;;2.67;1.88;;;;;;;-145.69;35.58;69182.31;5037868;28;20204;-78
2022/08/04 10:07:23;;;;;;;6.18;1.90;;;;;;;-145.69;35.37;69186.31;5056014;28;20203;-78
2022/08/04 10:10:03;;;;;;;2.97;1.90;;;;;;;-145.69;33.91;69202.22;5055687;28;20199;-78
2022/08/04 10:12:38;;;;;;;5.40;1.77;;;;;;;-145.69;35.64;69188.28;5055663;28;20207;-77
2022/08/04 10:15:19;;;;;;;2.95;1.90;;;;;;;-145.69;34.60;69174.38;5054997;28;20321;-77
2022/08/04 10:18:03;;;;;;;3.58;1.67;;;;;;;-145.69;33.31;69200.22;5044017;28;20212;-77
2022/08/04 10:20:50;;;;;;;4.03;1.73;;;;;;;-145.69;34.25;69208.19;5035650;28;20196;-77
2022/08/04 10:23:33;;;;;;;3.05;1.70;;;;;;;-145.69;33.13;69226.06;5035456;28;20208;-78
2022/08/04 10:26:06;;;;;;;3.05;1.50;;;;;;;-145.69;33.71;69194.25;5035655;28;20258;-77
2022/08/04 10:28:41;;;;;;;3.08;1.50;;;;;;;-145.69;32.76;69184.31;5052855;28;20286;-77
2022/08/04 10:31:13;;;;;;;2.28;1.70;;;;;;;-145.69;35.31;69198.22;5055517;28;20232;-78
2022/08/04 10:33:44;;;;;;;2.30;1.50;;;;;;;-145.69;33.36;69222.09;5055013;28;20531;-78
2022/08/04 10:36:16;;;;;;;3.25;1.30;;;;;;;-145.69;32.62;69194.25;5055388;28;20207;-77
2022/08/04 10:38:52;;;;;;;2.75;1.30;;;;;;;-145.69;31.36;69146.53;5054469;28;20199;-78
2022/08/04 10:41:27;;;;;;;1.90;1.20;;;;;;;-145.69;32.32;69110.72;5035333;28;20206;-79
2022/08/04 10:44:06;;;;;;;1.55;1.30;;;;;;;-145.69;30.89;69118.69;5035369;28;20199;-77
2022/08/04 10:46:37;;;;;;;3.17;1.40;;;;;;;-145.69;30.52;69150.50;5035132;28;20287;-77
2022/08/04 10:49:07;;;;;;;2.00;1.00;;;;;;;-145.69;30.83;69210.16;5034913;28;20667;-77
2022/08/04 10:51:36;;;;;;;2.75;1.65;;;;;;;-145.69;32.41;69245.97;5042596;28;20187;-78
2022/08/04 10:54:06;;;;;;;5.28;1.63;;;;;;;-145.69;32.02;69269.81;5054788;28;20277;-77
2022/08/04 10:56:40;;;;;;;1.40;1.20;;;;;;;-145.69;31.06;69243.97;5055039;28;20261;-77
2022/08/04 10:59:11;;;;;;;2.70;1.25;;;;;;;-145.69;31.09;69194.25;5054910;28;20650;-77
2022/08/04 11:01:42;;;;;;;2.55;1.30;;;;;;;-145.69;30.78;69170.38;5055150;28;20207;-78
2022/08/04 11:04:15;;;;;;;4.32;1.25;;;;;;;-145.69;30.12;69138.56;5041802;28;20204;-78
2022/08/04 11:06:44;;;;;;;3.80;1.10;;;;;;;-145.69;31.11;69094.81;5034818;28;20262;-78
2022/08/04 11:09:11;;;;;;;2.38;1.23;;;;;;;-145.69;32.08;69094.81;5034533;28;20200;-77
2022/08/04 11:11:43;;;;;;;3.90;1.20;;;;;;;-145.69;31.20;69059.03;5034692;28;20717;-78
2022/08/04 11:14:12;;;;;;;2.20;1.30;;;;;;;-145.69;30.73;69003.34;5034601;28;20254;-78
2022/08/04 11:16:44;;;;;;;1.90;1.30;;;;;;;-145.69;29.75;69019.25;5049617;28;20662;-77
2022/08/04 11:19:22;;;;;;;1.08;0.90;;;;;;;-145.69;29.23;69003.34;5054443;28;20200;-77
2022/08/04 11:21:55;;;;;;;0.82;0.80;;;;;;;-145.69;28.20;69009.31;5054237;28;20199;-77
2022/08/04 11:24:26;;;;;;;2.60;1.25;;;;;;;-145.69;28.78;69025.22;5054499;28;20211;-77
2022/08/04 11:26:58;;;;;;;3.08;1.13;;;;;;;-145.69;28.97;68997.38;5053196;28;20234;-77
2022/08/04 11:29:29;;;;;;;2.03;1.38;;;;;;;-145.69;29.00;68987.44;5033987;28;20200;-77
2022/08/04 11:32:00;;;;;;;1.50;1.17;;;;;;;-145.69;28.91;68937.72;5034454;28;20208;-77
2022/08/04 11:34:27;;;;;;;3.28;1.30;;;;;;;-145.69;27.98;68947.66;5034060;28;20223;-77
2022/08/04 11:37:02;;;;;;;1.20;1.10;;;;;;;-145.69;30.32;68923.78;5034229;28;20658;-77
2022/08/04 11:39:33;;;;;;;2.85;1.33;;;;;;;-145.69;28.75;68905.91;5036366;28;20199;-77
2022/08/04 11:42:13;;;;;;;2.63;1.23;;;;;;;-145.69;28.41;68909.88;5034097;28;20203;-78
2022/08/04 11:44:43;;;;;;;1.38;1.17;;;;;;;-145.69;28.92;68890.00;5033903;28;20295;-77
2022/08/04 11:47:21;;;;;;;1.25;1.10;;;;;;;-145.69;28.71;68854.19;5033962;28;20232;-78
2022/08/04 11:49:55;;;;;;;1.10;1.00;;;;;;;-145.69;28.13;68840.28;5033959;28;20215;-78